Time;durP1;ratioP1;P1;durP2;ratioP2;P2;SDS_P1;SDS_P2;PMS_P1;PMS_P2;Temp;Humidity;BMP_temperature;BMP_pressure;BME280_temperature;BME280_humidity;BME280_pressure;Samples;Min_cycle;Max_cycle;Signal;HPM_P1;HPM_P2
2022/06/25 00:01:12;;;;;;;7.00;2.70;;;;;;;13.70;100.00;97066.91;5018985;28;20409;-66
2022/06/25 00:03:39;;;;;;;4.68;2.50;;;;;;;13.67;100.00;97065.56;5021728;28;20052;-66
2022/06/25 00:06:07;;;;;;;4.28;2.17;;;;;;;13.68;100.00;97069.94;5006988;28;20057;-67
2022/06/25 00:08:36;;;;;;;6.05;2.67;;;;;;;13.67;100.00;97071.00;5015022;28;20056;-66
2022/06/25 00:11:03;;;;;;;3.88;2.50;;;;;;;13.69;100.00;97077.00;5026968;28;20046;-66
2022/06/25 00:13:30;;;;;;;3.63;2.15;;;;;;;13.66;100.00;97074.81;5027543;28;20075;-66
2022/06/25 00:15:57;;;;;;;4.97;2.72;;;;;;;13.61;100.00;97081.13;5027575;28;20042;-66
2022/06/25 00:18:25;;;;;;;4.50;2.90;;;;;;;13.61;100.00;97077.56;5023732;28;20065;-66
2022/06/25 00:20:52;;;;;;;4.07;2.50;;;;;;;13.60;100.00;97084.13;5007577;28;20274;-66
2022/06/25 00:23:19;;;;;;;3.83;2.38;;;;;;;13.60;100.00;97082.19;5007225;28;20058;-66
2022/06/25 00:25:45;;;;;;;7.13;2.67;;;;;;;13.60;100.00;97087.63;5008213;28;20525;-66
2022/06/25 00:28:12;;;;;;;4.60;2.45;;;;;;;13.57;100.00;97085.50;5007991;28;20321;-66
2022/06/25 00:30:39;;;;;;;6.88;3.05;;;;;;;13.52;100.00;97086.31;5007949;28;20045;-67
2022/06/25 00:33:05;;;;;;;5.50;2.90;;;;;;;13.52;100.00;97088.22;5007587;28;20073;-68
2022/06/25 00:35:32;;;;;;;4.05;2.60;;;;;;;13.53;100.00;97087.13;5007078;28;20180;-67
2022/06/25 00:37:58;;;;;;;6.32;2.80;;;;;;;13.55;100.00;97090.38;5009557;28;20046;-67
2022/06/25 00:40:25;;;;;;;4.97;2.33;;;;;;;13.54;100.00;97094.19;5011179;28;20042;-68
2022/06/25 00:42:51;;;;;;;6.20;2.72;;;;;;;13.53;100.00;97096.09;5007628;28;20490;-67
2022/06/25 00:45:18;;;;;;;5.53;2.70;;;;;;;13.54;100.00;97091.47;5007056;28;20073;-67
2022/06/25 00:47:45;;;;;;;3.97;2.38;;;;;;;13.51;100.00;97095.56;5005959;28;20305;-67
2022/06/25 00:50:12;;;;;;;7.60;2.45;;;;;;;13.53;100.00;97093.38;5005805;28;20045;-67
2022/06/25 00:52:42;;;;;;;8.65;2.80;;;;;;;13.53;100.00;97098.03;5006361;28;20045;-68
2022/06/25 00:55:13;;;;;;;5.25;2.30;;;;;;;13.52;100.00;97093.66;5007881;28;20046;-68
2022/06/25 00:57:42;;;;;;;4.97;2.70;;;;;;;13.47;100.00;97090.91;5006209;28;20412;-67
2022/06/25 01:00:15;;;;;;;5.82;2.60;;;;;;;13.45;100.00;97090.41;5007677;28;20072;-67
2022/06/25 01:02:42;;;;;;;5.10;2.85;;;;;;;13.40;100.00;97094.75;5043557;28;20041;-67
2022/06/25 01:05:15;;;;;;;4.18;2.58;;;;;;;13.34;100.00;97087.69;5040754;28;20069;-67
2022/06/25 01:07:48;;;;;;;4.63;2.72;;;;;;;13.34;100.00;97089.63;5007219;28;20076;-67
2022/06/25 01:10:16;;;;;;;4.50;3.17;;;;;;;13.23;100.00;97092.34;5025090;28;20500;-67
2022/06/25 01:12:43;;;;;;;5.60;2.92;;;;;;;13.18;100.00;97091.56;5005894;28;20045;-67
2022/06/25 01:15:16;;;;;;;4.65;3.20;;;;;;;13.19;100.00;97095.91;5007066;28;20081;-67
2022/06/25 01:17:48;;;;;;;4.50;2.90;;;;;;;13.13;100.00;97087.75;5026906;28;20487;-67
2022/06/25 01:20:17;;;;;;;4.53;2.75;;;;;;;13.16;100.00;97101.91;5005253;28;20128;-67
2022/06/25 01:22:44;;;;;;;7.60;2.88;;;;;;;13.11;100.00;97108.16;5013573;28;20039;-67
2022/06/25 01:25:12;;;;;;;6.63;2.78;;;;;;;13.11;100.00;97103.53;5029554;28;20168;-67
2022/06/25 01:27:39;;;;;;;5.18;2.70;;;;;;;13.12;100.00;97107.09;5027125;28;20041;-67
2022/06/25 01:30:09;;;;;;;5.60;2.60;;;;;;;13.13;100.00;97111.41;5025397;28;20077;-68
2022/06/25 01:32:36;;;;;;;3.90;2.85;;;;;;;13.07;100.00;97107.06;5012960;28;20046;-67
2022/06/25 01:35:03;;;;;;;7.55;2.70;;;;;;;13.03;100.00;97111.41;5007277;28;20664;-67
2022/06/25 01:37:33;;;;;;;4.20;2.67;;;;;;;12.98;100.00;97106.81;5004610;28;20042;-67
2022/06/25 01:40:00;;;;;;;4.13;2.42;;;;;;;13.04;100.00;97111.16;5010741;28;20042;-68
2022/06/25 01:45:13;;;;;;;4.95;2.55;;;;;;;13.10;100.00;97104.63;5007074;28;20076;-68
2022/06/25 01:47:41;;;;;;;3.50;2.40;;;;;;;13.12;100.00;97117.94;5007725;28;20128;-67
2022/06/25 01:50:09;;;;;;;4.90;2.53;;;;;;;13.07;100.00;97113.34;5010947;28;20045;-67
2022/06/25 01:52:36;;;;;;;3.97;2.60;;;;;;;13.00;100.00;97110.91;5009307;28;20049;-67
2022/06/25 01:55:04;;;;;;;7.85;3.10;;;;;;;12.99;100.00;97113.88;5010438;28;20045;-67
2022/06/25 01:57:32;;;;;;;5.82;2.97;;;;;;;12.92;100.00;97106.00;5009051;28;20096;-67
2022/06/25 01:59:59;;;;;;;3.70;2.50;;;;;;;12.93;100.00;97109.56;5008480;28;20587;-67
2022/06/25 02:02:27;;;;;;;7.75;3.08;;;;;;;12.95;100.00;97112.81;5041624;28;20056;-68
2022/06/25 02:04:53;;;;;;;4.30;2.95;;;;;;;12.89;100.00;97109.28;5049122;28;20141;-67
2022/06/25 02:07:20;;;;;;;6.32;3.10;;;;;;;12.96;100.00;97117.16;5015969;28;20042;-67
2022/06/25 02:09:47;;;;;;;5.78;2.90;;;;;;;12.93;100.00;97109.56;5026334;28;20566;-67
2022/06/25 02:12:13;;;;;;;4.10;2.70;;;;;;;12.91;100.00;97114.44;5029816;28;20045;-67
2022/06/25 02:14:40;;;;;;;4.70;2.92;;;;;;;12.92;100.00;97114.16;5030513;28;20524;-67
2022/06/25 02:17:07;;;;;;;6.07;3.00;;;;;;;12.91;100.00;97117.16;5029200;28;20052;-67
2022/06/25 02:19:33;;;;;;;3.72;2.15;;;;;;;12.94;100.00;97124.78;5015210;28;20489;-67
2022/06/25 02:22:00;;;;;;;3.42;2.22;;;;;;;12.90;100.00;97129.91;5010100;28;20037;-67
2022/06/25 02:24:26;;;;;;;5.35;2.80;;;;;;;12.94;100.00;97124.78;5009075;28;20045;-68
2022/06/25 02:26:53;;;;;;;5.05;2.70;;;;;;;12.86;100.00;97128.84;5008565;28;20046;-68
2022/06/25 02:29:19;;;;;;;6.03;2.65;;;;;;;12.79;100.00;97126.41;5009523;28;20046;-67
2022/06/25 02:31:47;;;;;;;7.20;3.35;;;;;;;12.69;100.00;97131.84;5010244;28;20056;-67
2022/06/25 02:34:13;;;;;;;7.68;3.08;;;;;;;12.63;100.00;97125.59;5009550;28;20046;-67
2022/06/25 02:36:40;;;;;;;4.97;3.00;;;;;;;12.69;100.00;97142.69;5009617;28;20038;-68
2022/06/25 02:39:08;;;;;;;6.65;3.28;;;;;;;12.69;100.00;97138.09;5034981;28;20049;-67
2022/06/25 02:41:34;;;;;;;5.25;2.65;;;;;;;12.74;100.00;97134.53;5041292;28;20519;-68
2022/06/25 02:44:01;;;;;;;5.63;2.78;;;;;;;12.76;100.00;97137.81;5045349;28;20513;-67
2022/06/25 02:46:36;;;;;;;5.30;2.90;;;;;;;12.82;100.00;97141.31;5008435;28;20149;-68
2022/06/25 02:49:03;;;;;;;4.63;2.55;;;;;;;12.84;100.00;97140.00;5008106;28;20129;-67
2022/06/25 02:51:30;;;;;;;3.78;2.40;;;;;;;12.83;100.00;97145.69;5038790;28;20148;-67
2022/06/25 02:53:58;;;;;;;4.03;2.28;;;;;;;12.86;100.00;97142.41;5036861;28;20041;-67
2022/06/25 02:59:11;;;;;;;6.55;2.53;;;;;;;13.03;100.00;97135.88;5028460;28;20209;-67
2022/06/25 03:01:46;;;;;;;3.88;1.90;;;;;;;13.04;100.00;97141.06;5028355;28;21356;-67
2022/06/25 03:04:14;;;;;;;2.63;1.83;;;;;;;13.11;100.00;97147.03;5028348;28;20103;-67
2022/06/25 03:06:41;;;;;;;3.13;1.95;;;;;;;13.19;100.00;97150.28;5028375;28;20045;-68
2022/06/25 03:09:08;;;;;;;3.30;1.80;;;;;;;13.12;100.00;97148.66;5027836;28;20040;-66
2022/06/25 03:11:34;;;;;;;3.95;1.88;;;;;;;13.11;100.00;97154.34;5028238;28;20053;-67
2022/06/25 03:14:01;;;;;;;6.78;2.08;;;;;;;13.05;100.00;97148.09;5028935;28;20079;-67
2022/06/25 03:16:29;;;;;;;5.63;2.40;;;;;;;13.05;100.00;97142.66;5026627;28;20420;-68
2022/06/25 03:18:56;;;;;;;4.88;2.72;;;;;;;12.99;100.00;97136.44;5025463;28;20062;-67
2022/06/25 03:21:50;;;;;;;3.42;1.85;;;;;;;13.03;100.00;97136.72;5030879;28;20136;-67
2022/06/25 03:24:19;;;;;;;3.95;1.83;;;;;;;12.94;100.00;97135.63;5039830;28;20049;-68
2022/06/25 03:26:45;;;;;;;3.65;1.80;;;;;;;12.86;100.00;97135.09;5022385;28;20053;-68
2022/06/25 03:29:12;;;;;;;3.63;2.20;;;;;;;12.82;100.00;97135.91;5024544;28;20051;-67
2022/06/25 03:31:39;;;;;;;5.18;1.92;;;;;;;12.77;100.00;97135.91;5026055;28;20073;-68
2022/06/25 03:34:26;;;;;;;5.20;2.45;;;;;;;12.70;100.00;97137.00;5027276;28;20049;-67
2022/06/25 03:36:54;;;;;;;6.72;2.70;;;;;;;12.66;100.00;97132.38;5036658;28;20127;-67
2022/06/25 03:39:21;;;;;;;6.05;2.70;;;;;;;12.65;100.00;97131.56;5034360;28;20191;-67
2022/06/25 03:41:49;;;;;;;5.72;2.30;;;;;;;12.70;100.00;97136.19;5017066;28;20579;-67
2022/06/25 03:44:51;;;;;;;4.07;2.03;;;;;;;12.78;100.00;97138.34;5003321;28;20145;-67
2022/06/25 03:47:25;;;;;;;6.07;2.20;;;;;;;12.80;100.00;97138.09;5007519;28;20344;-67
2022/06/25 03:49:53;;;;;;;4.80;1.80;;;;;;;12.84;100.00;97136.47;5006826;28;20076;-67
2022/06/25 03:52:21;;;;;;;7.30;2.45;;;;;;;12.85;100.00;97132.63;5008097;28;20042;-67
2022/06/25 03:54:48;;;;;;;3.80;2.30;;;;;;;12.87;100.00;97131.28;5007817;28;20056;-67
2022/06/25 03:57:15;;;;;;;6.03;2.20;;;;;;;12.84;100.00;97131.84;5008945;28;20088;-67
2022/06/25 03:59:58;;;;;;;3.83;2.10;;;;;;;12.90;100.00;97129.13;5007923;28;20065;-67
2022/06/25 04:02:38;;;;;;;3.58;2.35;;;;;;;12.83;100.00;97137.53;5043953;28;20052;-67
2022/06/25 04:05:24;;;;;;;3.60;2.30;;;;;;;12.83;100.00;97137.53;5048874;28;20420;-67
2022/06/25 04:07:51;;;;;;;4.53;2.10;;;;;;;12.90;100.00;97142.69;5046444;28;20668;-67
2022/06/25 04:10:18;;;;;;;3.67;2.10;;;;;;;12.97;100.00;97151.41;5026904;28;20034;-67
2022/06/25 04:12:44;;;;;;;4.95;2.10;;;;;;;12.98;100.00;97147.59;5028317;28;20045;-67
2022/06/25 04:15:11;;;;;;;5.45;2.15;;;;;;;13.01;100.00;97149.75;5027007;28;20133;-67
2022/06/25 04:17:37;;;;;;;4.90;2.25;;;;;;;13.02;100.00;97145.97;5027295;28;20045;-67
2022/06/25 04:20:05;;;;;;;3.65;2.10;;;;;;;13.05;100.00;97155.47;5015086;28;20049;-67
2022/06/25 04:22:32;;;;;;;4.90;2.10;;;;;;;13.09;100.00;97154.63;5007450;28;20148;-67
2022/06/25 04:25:01;;;;;;;4.82;2.35;;;;;;;13.06;100.00;97159.81;5006976;28;20050;-68
2022/06/25 04:30:12;;;;;;;6.70;2.65;;;;;;;13.05;100.00;97158.97;5006229;28;20310;-67
2022/06/25 04:32:43;;;;;;;4.22;2.90;;;;;;;13.03;100.00;97163.88;5007201;28;20616;-67
2022/06/25 04:35:17;;;;;;;3.40;2.28;;;;;;;13.03;100.00;97169.31;5007117;28;20053;-67
2022/06/25 04:37:45;;;;;;;7.63;2.38;;;;;;;13.06;100.00;97171.50;5006431;28;20050;-67
2022/06/25 04:40:14;;;;;;;6.68;2.42;;;;;;;13.14;100.00;97175.56;5007298;28;20093;-67
2022/06/25 04:42:44;;;;;;;5.20;2.35;;;;;;;13.19;100.00;97178.28;5006584;28;20529;-66
2022/06/25 04:45:11;;;;;;;4.40;2.20;;;;;;;13.27;100.00;97179.63;5007138;28;20553;-67
2022/06/25 04:47:59;;;;;;;4.18;2.13;;;;;;;13.30;100.00;97178.28;5018321;28;20527;-67
2022/06/25 04:50:52;;;;;;;4.75;2.10;;;;;;;13.33;100.00;97183.97;5024567;28;20061;-67
2022/06/25 04:53:19;;;;;;;3.50;2.08;;;;;;;13.40;100.00;97181.78;5029600;28;20065;-67
2022/06/25 04:55:46;;;;;;;6.38;2.20;;;;;;;13.44;100.00;97183.94;5043681;28;20041;-67
2022/06/25 04:58:12;;;;;;;6.32;2.22;;;;;;;13.51;100.00;97192.66;5028031;28;20072;-67
2022/06/25 05:00:40;;;;;;;4.53;2.20;;;;;;;13.61;100.00;97198.09;5026102;28;20038;-68
2022/06/25 05:03:07;;;;;;;3.88;2.30;;;;;;;13.76;100.00;97190.97;5044175;28;20488;-68
2022/06/25 05:05:40;;;;;;;5.70;1.80;;;;;;;13.93;100.00;97192.53;5026249;28;20096;-67
2022/06/25 05:08:10;;;;;;;3.15;1.60;;;;;;;14.10;100.00;97186.75;5022725;28;20304;-67
2022/06/25 05:10:37;;;;;;;4.32;1.70;;;;;;;14.21;100.00;97188.31;4999461;28;20041;-67
2022/06/25 05:13:12;;;;;;;5.25;1.90;;;;;;;14.30;100.00;97191.28;5027348;28;20038;-67
2022/06/25 05:15:43;;;;;;;3.15;1.80;;;;;;;14.28;100.00;97196.19;5026068;28;20044;-66
2022/06/25 05:18:12;;;;;;;3.17;1.85;;;;;;;14.28;100.00;97196.19;5025946;28;20045;-67
2022/06/25 05:20:41;;;;;;;4.20;2.10;;;;;;;14.30;100.00;97196.75;5010109;28;20034;-67
2022/06/25 05:23:07;;;;;;;2.50;1.50;;;;;;;14.34;100.00;97192.34;5006194;28;20046;-67
2022/06/25 05:25:35;;;;;;;4.18;1.67;;;;;;;14.43;100.00;97198.00;5006146;28;20084;-67
2022/06/25 05:28:03;;;;;;;4.03;1.90;;;;;;;14.51;100.00;97200.16;5006176;28;20096;-67
2022/06/25 05:30:31;;;;;;;2.60;1.63;;;;;;;14.55;100.00;97209.38;5006250;28;20041;-67
2022/06/25 05:32:58;;;;;;;4.70;1.98;;;;;;;14.61;99.94;97198.44;5006382;28;20088;-66
2022/06/25 05:35:25;;;;;;;2.97;1.70;;;;;;;14.66;98.70;97196.50;5007040;28;20128;-65
2022/06/25 05:37:52;;;;;;;3.47;1.42;;;;;;;14.81;98.41;97200.25;5007277;28;20398;-67
2022/06/25 05:40:19;;;;;;;4.03;1.67;;;;;;;14.89;98.51;97207.00;5045501;28;20485;-67
2022/06/25 05:42:46;;;;;;;5.20;1.80;;;;;;;14.97;97.95;97205.59;5045926;28;20052;-67
2022/06/25 05:45:12;;;;;;;5.05;1.50;;;;;;;15.07;97.75;97210.94;5046968;28;20040;-67
2022/06/25 05:47:39;;;;;;;2.55;1.70;;;;;;;15.14;97.00;97208.72;5046910;28;20059;-67
2022/06/25 05:50:06;;;;;;;4.35;1.48;;;;;;;15.29;96.89;97217.88;5023723;28;20045;-67
2022/06/25 05:52:33;;;;;;;4.72;1.58;;;;;;;15.41;96.14;97214.75;5007088;28;20052;-67
2022/06/25 05:55:00;;;;;;;2.70;1.52;;;;;;;15.45;95.44;97218.53;5006277;28;20045;-67
2022/06/25 05:57:26;;;;;;;3.47;1.40;;;;;;;15.54;95.40;97221.44;5007078;28;20424;-68
2022/06/25 05:59:53;;;;;;;2.10;1.30;;;;;;;15.59;95.72;97216.75;5016499;28;20087;-67
2022/06/25 06:02:20;;;;;;;2.17;1.50;;;;;;;15.65;95.67;97224.88;5025846;28;20460;-67
2022/06/25 06:04:46;;;;;;;2.05;1.15;;;;;;;15.74;94.75;97223.97;5036987;28;20080;-67
2022/06/25 06:07:13;;;;;;;4.85;1.70;;;;;;;15.81;93.62;97222.81;5023272;28;20046;-67
2022/06/25 06:09:40;;;;;;;6.10;1.60;;;;;;;15.88;94.79;97225.19;5013581;28;20057;-67
2022/06/25 06:12:07;;;;;;;1.98;1.33;;;;;;;15.96;93.91;97219.13;5024919;28;20057;-67
2022/06/25 06:14:33;;;;;;;4.95;1.60;;;;;;;15.99;93.04;97230.28;5030248;28;20049;-67
2022/06/25 06:17:00;;;;;;;2.95;1.30;;;;;;;16.08;93.63;97235.09;5026898;28;20041;-67
2022/06/25 06:19:27;;;;;;;3.08;1.50;;;;;;;16.19;93.80;97228.41;5020822;28;20459;-67
2022/06/25 06:21:53;;;;;;;2.35;1.70;;;;;;;16.25;92.94;97237.31;5006608;28;20046;-66
2022/06/25 06:24:20;;;;;;;3.47;1.55;;;;;;;16.34;91.65;97232.03;5007328;28;20517;-67
2022/06/25 06:26:46;;;;;;;1.65;1.23;;;;;;;16.37;90.76;97235.00;5006882;28;20413;-67
2022/06/25 06:29:13;;;;;;;3.05;1.50;;;;;;;16.45;89.92;97235.44;5007176;28;20049;-67
2022/06/25 06:31:40;;;;;;;2.28;1.35;;;;;;;16.53;89.53;97226.59;5006378;28;20046;-67
2022/06/25 06:34:06;;;;;;;1.70;1.20;;;;;;;16.68;89.65;97232.94;5009243;28;20100;-68
2022/06/25 06:36:33;;;;;;;2.90;1.58;;;;;;;16.78;89.20;97238.28;5010336;28;20077;-67
2022/06/25 06:38:59;;;;;;;4.63;1.60;;;;;;;16.88;88.64;97229.13;5019264;28;20060;-67
2022/06/25 06:41:26;;;;;;;2.28;1.63;;;;;;;17.00;86.84;97236.84;5030335;28;20485;-67
2022/06/25 06:43:53;;;;;;;4.35;1.75;;;;;;;17.19;84.29;97242.31;5027805;28;20406;-67
2022/06/25 06:46:19;;;;;;;5.32;1.13;;;;;;;17.31;82.60;97241.06;5029603;28;20037;-67
2022/06/25 06:48:46;;;;;;;2.97;1.65;;;;;;;17.42;81.39;97240.56;5030013;28;20045;-67
2022/06/25 06:51:13;;;;;;;4.03;1.50;;;;;;;17.53;80.45;97241.22;5009707;28;20038;-67
2022/06/25 06:53:39;;;;;;;7.20;1.52;;;;;;;17.61;81.48;97241.63;5010160;28;20057;-66
2022/06/25 06:56:06;;;;;;;2.25;1.30;;;;;;;17.71;81.44;97246.09;5013775;28;20347;-66
2022/06/25 06:58:32;;;;;;;2.15;1.23;;;;;;;17.86;82.73;97240.34;5036654;28;20045;-67
2022/06/25 07:00:59;;;;;;;3.42;1.38;;;;;;;17.96;81.11;97236.59;5039833;28;20541;-67
2022/06/25 07:03:26;;;;;;;3.20;1.33;;;;;;;18.06;78.79;97244.59;5029883;28;20045;-67
2022/06/25 07:05:55;;;;;;;3.40;1.40;;;;;;;18.13;79.19;97246.97;5038014;28;20049;-67
2022/06/25 07:08:22;;;;;;;3.45;1.45;;;;;;;18.10;81.31;97249.50;5044665;28;20038;-66
2022/06/25 07:10:48;;;;;;;4.28;1.40;;;;;;;18.28;81.97;97236.81;5010404;28;20536;-67
2022/06/25 07:13:15;;;;;;;3.55;1.48;;;;;;;18.30;81.08;97238.13;5035117;28;20275;-67
2022/06/25 07:15:41;;;;;;;3.22;1.63;;;;;;;18.40;80.22;97231.63;5027614;28;20045;-66
2022/06/25 07:18:08;;;;;;;2.65;1.60;;;;;;;18.39;80.36;97227.25;5047563;28;20052;-66
2022/06/25 07:20:35;;;;;;;3.08;1.30;;;;;;;18.63;79.12;97225.38;5042792;28;20060;-66
2022/06/25 07:23:01;;;;;;;2.78;1.40;;;;;;;18.72;78.76;97231.75;5027672;28;20487;-67
2022/06/25 07:25:28;;;;;;;4.90;1.60;;;;;;;18.66;79.43;97230.25;5040317;28;20048;-67
2022/06/25 07:27:54;;;;;;;3.67;1.60;;;;;;;18.57;79.71;97239.19;5027908;28;20259;-66
2022/06/25 07:30:21;;;;;;;2.85;1.83;;;;;;;18.57;78.66;97241.94;5022667;28;20045;-66
2022/06/25 07:32:48;;;;;;;3.47;1.67;;;;;;;18.73;78.89;97241.63;5034920;28;20040;-67
2022/06/25 07:35:14;;;;;;;4.50;1.60;;;;;;;18.70;77.00;97231.25;5047296;28;20073;-67
2022/06/25 07:37:42;;;;;;;3.30;1.60;;;;;;;19.02;76.13;97228.59;5039751;28;20060;-67
2022/06/25 07:40:09;;;;;;;3.75;1.50;;;;;;;19.14;74.83;97230.81;5027862;28;20067;-66
2022/06/25 07:42:35;;;;;;;3.90;1.27;;;;;;;19.24;74.62;97227.84;5033819;28;20053;-66
2022/06/25 07:45:03;;;;;;;5.88;1.77;;;;;;;19.47;74.17;97233.31;5046117;28;20060;-65
2022/06/25 07:47:37;;;;;;;6.88;1.40;;;;;;;19.26;74.75;97224.75;5038725;28;20052;-65
2022/06/25 07:53:02;;;;;;;3.33;1.42;;;;;;;19.45;73.23;97219.88;5036992;28;20131;-65
2022/06/25 07:55:29;;;;;;;5.05;1.40;;;;;;;19.49;74.30;97220.06;5013895;28;20042;-65
2022/06/25 07:57:55;;;;;;;3.15;1.92;;;;;;;19.36;73.48;97219.03;5040205;28;20051;-65
2022/06/25 08:00:22;;;;;;;3.13;1.30;;;;;;;19.54;74.05;97214.44;5038631;28;20068;-64
2022/06/25 08:02:49;;;;;;;4.20;1.75;;;;;;;19.88;71.42;97212.16;5045019;28;20118;-65
2022/06/25 08:05:15;;;;;;;2.65;1.67;;;;;;;19.64;70.01;97213.34;5033556;28;20135;-65
2022/06/25 08:07:42;;;;;;;3.85;1.52;;;;;;;20.00;72.31;97203.34;5032364;28;20045;-65
2022/06/25 08:10:08;;;;;;;2.53;1.58;;;;;;;20.42;68.74;97204.91;5026697;28;20551;-65
2022/06/25 08:12:35;;;;;;;3.03;1.35;;;;;;;20.53;67.11;97208.97;5033224;28;20049;-65
2022/06/25 08:15:01;;;;;;;2.28;1.23;;;;;;;20.51;66.97;97208.47;5046256;28;20496;-65
2022/06/25 08:17:29;;;;;;;1.55;1.00;;;;;;;20.39;66.70;97209.91;5038831;28;20535;-65
2022/06/25 08:19:56;;;;;;;2.55;1.40;;;;;;;20.37;67.38;97206.69;5017637;28;20058;-65
2022/06/25 08:22:23;;;;;;;5.88;1.98;;;;;;;20.32;68.49;97212.34;5038346;28;20388;-65
2022/06/25 08:24:49;;;;;;;2.05;1.50;;;;;;;20.27;67.07;97209.75;5027342;28;20037;-65
2022/06/25 08:27:16;;;;;;;2.70;1.42;;;;;;;20.48;66.52;97207.19;5037494;28;20053;-65
2022/06/25 08:29:43;;;;;;;5.30;1.42;;;;;;;20.57;66.17;97212.69;5040830;28;20041;-65
2022/06/25 08:32:09;;;;;;;2.95;1.42;;;;;;;20.85;65.53;97215.13;5037442;28;20045;-65
2022/06/25 08:34:36;;;;;;;2.03;1.33;;;;;;;20.76;65.33;97215.16;5039211;28;20500;-65
2022/06/25 08:37:04;;;;;;;2.97;1.48;;;;;;;21.02;65.18;97210.78;5033652;28;20071;-65
2022/06/25 08:39:31;;;;;;;3.20;1.50;;;;;;;21.00;65.04;97211.09;5031187;28;20056;-65
2022/06/25 08:42:03;;;;;;;3.50;1.48;;;;;;;20.94;62.57;97206.91;5034137;28;20110;-65
2022/06/25 08:44:30;;;;;;;3.88;1.33;;;;;;;20.59;64.04;97210.44;5043703;28;20473;-65
2022/06/25 08:46:58;;;;;;;2.65;1.40;;;;;;;20.61;65.98;97205.44;5023597;28;20061;-65
2022/06/25 08:49:26;;;;;;;5.28;2.20;;;;;;;20.51;65.80;97209.28;5026000;28;20060;-65
2022/06/25 08:51:54;;;;;;;3.90;1.50;;;;;;;20.61;65.04;97213.69;5031190;28;20052;-65
2022/06/25 08:54:22;;;;;;;2.88;1.27;;;;;;;20.57;64.62;97206.38;5035144;28;20526;-65
2022/06/25 08:56:49;;;;;;;3.63;1.60;;;;;;;20.82;63.86;97199.25;5034862;28;20063;-65
2022/06/25 08:59:16;;;;;;;2.53;1.45;;;;;;;21.11;63.01;97205.28;5027618;28;20351;-65
2022/06/25 09:01:44;;;;;;;4.72;1.50;;;;;;;21.31;64.92;97204.59;5026083;28;20050;-65
2022/06/25 09:04:11;;;;;;;3.70;1.50;;;;;;;21.61;63.18;97197.53;5025815;28;20045;-65
2022/06/25 09:06:37;;;;;;;5.97;1.60;;;;;;;21.54;62.15;97190.59;5036455;28;20045;-65
2022/06/25 09:09:13;;;;;;;4.18;1.33;;;;;;;21.39;61.69;97191.13;5027507;28;20421;-66
2022/06/25 09:11:58;;;;;;;4.03;1.40;;;;;;;21.70;60.91;97188.13;5038136;28;20060;-66
2022/06/25 09:14:29;;;;;;;5.55;1.58;;;;;;;22.05;59.11;97187.19;5035432;28;20504;-66
2022/06/25 09:16:57;;;;;;;;;;;;;;;21.99;59.07;97185.75;5025819;28;20050;-66
2022/06/25 09:19:35;;;;;;;3.17;1.40;;;;;;;22.21;59.51;97187.41;5023545;28;20403;-67
2022/06/25 09:22:11;;;;;;;3.03;1.30;;;;;;;22.00;58.09;97181.06;5027710;28;20451;-66
2022/06/25 09:24:48;;;;;;;3.58;1.30;;;;;;;21.76;58.19;97179.69;5045414;28;20124;-67
2022/06/25 09:27:38;;;;;;;4.60;1.48;;;;;;;22.00;57.14;97178.28;5038091;28;20056;-66
2022/06/25 09:30:16;;;;;;;3.53;1.50;;;;;;;22.17;58.25;97178.19;5041457;28;20048;-66
2022/06/25 09:32:45;;;;;;;4.38;2.40;;;;;;;22.27;58.11;97177.00;5056621;28;20041;-67
2022/06/25 09:35:13;;;;;;;2.47;1.10;;;;;;;21.80;58.08;97175.13;5047264;28;20572;-66
2022/06/25 09:37:40;;;;;;;2.08;1.30;;;;;;;;;;5041364;28;20104;-66
2022/06/25 09:40:09;;;;;;;2.28;1.30;;;;;;;22.20;57.73;97168.44;5027255;28;20120;-66
2022/06/25 09:42:37;;;;;;;1.98;1.10;;;;;;;22.61;54.73;97166.06;5038284;28;20508;-66
2022/06/25 09:45:04;;;;;;;2.58;1.20;;;;;;;23.09;53.99;97168.56;5012642;28;20068;-66
2022/06/25 09:47:36;;;;;;;4.63;1.30;;;;;;;22.49;53.62;97169.56;5037629;28;20550;-66
2022/06/25 09:50:08;;;;;;;2.58;1.00;;;;;;;22.09;57.55;97177.13;5020367;28;20077;-66
2022/06/25 09:52:36;;;;;;;2.40;1.23;;;;;;;22.62;55.31;97164.13;5032331;28;20096;-66
2022/06/25 09:55:08;;;;;;;2.80;1.30;;;;;;;22.80;55.79;97170.28;5033936;28;20052;-66
2022/06/25 09:57:35;;;;;;;3.08;1.05;;;;;;;23.14;52.10;97173.88;5030850;28;20323;-66
2022/06/25 10:00:03;;;;;;;4.18;1.25;;;;;;;23.32;52.22;97170.94;5034818;28;20064;-66
2022/06/25 10:02:36;;;;;;;2.35;1.10;;;;;;;23.11;54.62;97169.84;5028364;28;20041;-66
2022/06/25 10:05:04;;;;;;;3.17;1.38;;;;;;;23.02;52.30;97166.38;5043970;28;20037;-66
2022/06/25 10:10:20;;;;;;;3.08;1.00;;;;;;;23.17;52.72;97150.31;5027240;28;20304;-66
2022/06/25 10:12:50;;;;;;;4.40;1.42;;;;;;;23.35;51.90;97148.19;5030164;28;20041;-66
2022/06/25 10:15:19;;;;;;;1.77;1.10;;;;;;;23.58;52.35;97154.09;5030724;28;20038;-66
2022/06/25 10:17:48;;;;;;;3.80;1.13;;;;;;;23.71;50.75;97151.34;5029913;28;20120;-66
2022/06/25 10:20:16;;;;;;;2.47;1.20;;;;;;;23.92;50.70;97154.03;5022235;28;20046;-66
2022/06/25 10:22:45;;;;;;;3.17;1.20;;;;;;;23.43;51.07;97149.25;5042295;28;20052;-67
2022/06/25 10:25:19;;;;;;;2.72;1.00;;;;;;;23.64;50.38;97141.69;5030818;28;20045;-66
2022/06/25 10:27:47;;;;;;;2.10;1.20;;;;;;;23.59;49.85;97150.19;5040751;28;20037;-67
2022/06/25 10:30:35;;;;;;;2.47;1.15;;;;;;;23.65;49.84;97150.78;5029296;28;20344;-64
2022/06/25 10:33:02;;;;;;;1.40;1.00;;;;;;;23.62;46.92;97145.94;5043095;28;20041;-67
2022/06/25 10:35:36;;;;;;;2.33;0.80;;;;;;;23.26;49.31;97140.00;5038095;28;20467;-66
2022/06/25 10:38:11;;;;;;;3.38;1.40;;;;;;;23.63;50.80;97145.59;5042703;28;20111;-66
2022/06/25 10:40:56;;;;;;;3.40;1.20;;;;;;;23.89;51.15;97138.13;5025146;28;20081;-66
2022/06/25 10:43:41;;;;;;;3.92;1.20;;;;;;;23.99;49.36;97128.56;5016148;28;20068;-66
2022/06/25 10:46:22;;;;;;;3.83;1.60;;;;;;;23.47;50.21;97123.34;5045038;28;20047;-66
2022/06/25 10:48:55;;;;;;;4.20;1.40;;;;;;;23.76;49.38;97134.53;5035827;28;20080;-66
2022/06/25 10:51:49;;;;;;;3.35;1.48;;;;;;;23.59;49.63;97127.28;5023699;28;20040;-67
2022/06/25 10:54:27;;;;;;;2.88;1.20;;;;;;;23.83;48.91;97129.25;5047367;28;20064;-66
2022/06/25 10:56:58;;;;;;;2.65;1.10;;;;;;;24.02;48.99;97125.06;5047613;28;20079;-66
2022/06/25 10:59:46;;;;;;;;;;;;;;;23.78;46.79;97119.22;5048255;28;20045;-66
2022/06/25 11:02:15;;;;;;;2.75;1.02;;;;;;;24.58;46.67;97122.81;5032735;28;19925;-66
2022/06/25 11:04:49;;;;;;;2.40;1.15;;;;;;;23.91;47.58;97110.91;5029129;28;20390;-66
2022/06/25 11:07:18;;;;;;;2.45;1.10;;;;;;;24.37;47.29;97113.53;5044773;28;20045;-66
2022/06/25 11:10:11;;;;;;;2.78;1.00;;;;;;;24.81;46.45;97109.22;5030101;28;20049;-67
2022/06/25 11:12:39;;;;;;;2.90;1.05;;;;;;;24.27;47.28;97114.00;5020912;28;20433;-66
2022/06/25 11:15:09;;;;;;;4.60;1.40;;;;;;;24.42;46.84;97118.00;5034141;28;20045;-66
2022/06/25 11:17:36;;;;;;;1.92;1.10;;;;;;;25.31;44.44;97117.28;5047378;28;20041;-66
2022/06/25 11:20:04;;;;;;;1.55;0.90;;;;;;;25.50;43.33;97111.03;5027350;28;20053;-67
2022/06/25 11:22:31;;;;;;;2.70;1.20;;;;;;;25.62;43.31;97103.81;5046821;28;20052;-67
2022/06/25 11:30:33;;;;;;;6.95;1.60;;;;;;;24.64;45.20;97105.59;5022398;28;20045;-66
2022/06/25 11:33:03;;;;;;;2.53;1.10;;;;;;;24.12;47.59;97090.66;5033712;28;20042;-67
2022/06/25 11:35:44;;;;;;;2.85;1.30;;;;;;;24.45;47.59;97105.44;5038709;28;20067;-67
2022/06/25 11:38:17;;;;;;;3.13;0.90;;;;;;;24.77;46.97;97102.78;5041302;28;20040;-67
2022/06/25 11:40:45;;;;;;;3.35;1.10;;;;;;;25.39;44.53;97099.69;5038584;28;20041;-66
2022/06/25 11:43:13;;;;;;;2.15;0.90;;;;;;;25.50;43.04;97097.16;5032463;28;20488;-66
2022/06/25 11:45:56;;;;;;;2.38;1.25;;;;;;;25.31;45.77;97095.94;5035005;28;20053;-67
2022/06/25 11:48:28;;;;;;;3.00;1.10;;;;;;;25.12;43.51;97098.56;5026398;28;20563;-66
2022/06/25 11:50:58;;;;;;;2.85;1.00;;;;;;;24.92;43.84;97096.50;5016989;28;20517;-66
2022/06/25 11:53:34;;;;;;;2.03;1.00;;;;;;;24.76;44.21;97085.34;5046366;28;20041;-66
2022/06/25 11:56:03;;;;;;;2.13;1.00;;;;;;;25.52;42.60;97086.53;5042753;28;20068;-66
2022/06/25 11:58:32;;;;;;;2.45;0.98;;;;;;;25.47;43.19;97092.38;5026692;28;20037;-66
2022/06/25 12:01:01;;;;;;;3.08;1.00;;;;;;;25.79;42.71;97089.56;5030615;28;20044;-66